Time;durP1;ratioP1;P1;durP2;ratioP2;P2;SDS_P1;SDS_P2;PMS_P1;PMS_P2;Temp;Humidity;BMP_temperature;BMP_pressure;BME280_temperature;BME280_humidity;BME280_pressure;Samples;Min_cycle;Max_cycle;Signal;HPM_P1;HPM_P2
2023/10/05 05:47:34;;;;;;;4.40;2.00;;;;;;;;;;10583948;27;20124;-84
2023/10/05 05:52:35;;;;;;;8.15;2.70;;;;;;;;;;10588225;28;20025;-84
2023/10/05 05:57:43;;;;;;;5.72;2.00;;;;;;;;;;10612617;28;20035;-84
2023/10/05 06:02:47;;;;;;;4.45;1.90;;;;;;;;;;10568059;28;20032;-88
2023/10/05 06:07:56;;;;;;;7.78;3.30;;;;;;;;;;10578912;28;20390;-88
2023/10/05 06:12:58;;;;;;;6.55;2.60;;;;;;;;;;10578516;28;20053;-89
2023/10/05 06:18:16;;;;;;;3.60;2.17;;;;;;;;;;10580148;28;20030;-88
2023/10/05 06:23:20;;;;;;;7.35;3.00;;;;;;;;;;10577553;28;20120;-86
2023/10/05 06:28:27;;;;;;;5.00;2.35;;;;;;;;;;10578458;28;20114;-87
2023/10/05 06:33:28;;;;;;;10.02;3.28;;;;;;;;;;10591238;28;20075;-85
2023/10/05 06:38:30;;;;;;;4.80;2.03;;;;;;;;;;10625757;28;20035;-86
2023/10/05 06:43:35;;;;;;;6.95;2.78;;;;;;;;;;10624203;28;20040;-86
2023/10/05 06:48:40;;;;;;;7.68;2.97;;;;;;;;;;10594956;28;20028;-85
2023/10/05 06:53:59;;;;;;;7.45;2.60;;;;;;;;;;10583028;28;20372;-86
2023/10/05 06:59:07;;;;;;;5.15;2.90;;;;;;;;;;10553819;28;20016;-86
2023/10/05 07:04:08;;;;;;;3.15;1.73;;;;;;;;;;10555726;28;20028;-84
2023/10/05 07:09:11;;;;;;;5.60;2.60;;;;;;;;;;10554765;28;20055;-83
2023/10/05 07:14:13;;;;;;;4.47;2.50;;;;;;;;;;10555279;28;20400;-83
2023/10/05 07:19:16;;;;;;;8.23;2.83;;;;;;;;;;10553634;28;20020;-83
2023/10/05 07:24:17;;;;;;;6.35;2.60;;;;;;;;;;10551026;28;20028;-82
2023/10/05 07:29:18;;;;;;;7.45;2.95;;;;;;;;;;10552577;28;20021;-83
2023/10/05 07:34:20;;;;;;;6.80;3.30;;;;;;;;;;10554384;28;20024;-82
2023/10/05 07:39:23;;;;;;;5.88;3.13;;;;;;;;;;10553306;28;20136;-82
2023/10/05 07:44:24;;;;;;;8.50;3.90;;;;;;;;;;10556241;28;20119;-83
2023/10/05 07:49:25;;;;;;;8.25;3.80;;;;;;;;;;10553294;28;20093;-83
2023/10/05 07:54:28;;;;;;;8.10;3.55;;;;;;;;;;10552109;28;20056;-85
2023/10/05 07:59:40;;;;;;;7.55;3.17;;;;;;;;;;10504110;22;20064;-84
2023/10/05 08:04:42;;;;;;;7.85;3.25;;;;;;;;;;10400218;28;20064;-85
2023/10/05 08:09:44;;;;;;;7.53;3.42;;;;;;;;;;10407096;28;20049;-84
2023/10/05 08:14:45;;;;;;;5.45;2.75;;;;;;;;;;10405001;28;20037;-84
2023/10/05 08:19:46;;;;;;;8.90;2.85;;;;;;;;;;10393799;28;20458;-83
2023/10/05 08:24:48;;;;;;;5.10;2.58;;;;;;;;;;10394894;28;20393;-84
2023/10/05 08:30:03;;;;;;;5.15;2.67;;;;;;;;;;10388884;28;20374;-85
2023/10/05 08:35:12;;;;;;;7.93;3.08;;;;;;;;;;10394464;28;20034;-84
2023/10/05 08:45:51;;;;;;;9.02;3.33;;;;;;;;;;10393542;28;20033;-83
2023/10/05 08:50:54;;;;;;;7.70;2.92;;;;;;;;;;10392299;28;20030;-83
2023/10/05 08:55:58;;;;;;;7.25;3.05;;;;;;;;;;10392027;28;20121;-82
2023/10/05 09:01:23;;;;;;;7.13;2.90;;;;;;;;;;10394716;28;20029;-83
2023/10/05 09:06:26;;;;;;;6.18;2.78;;;;;;;;;;10390422;28;20041;-84
2023/10/05 09:11:31;;;;;;;4.07;2.30;;;;;;;;;;10374765;28;20029;-83
2023/10/05 09:16:39;;;;;;;7.50;2.72;;;;;;;;;;10361608;28;20053;-82
2023/10/05 09:21:54;;;;;;;6.50;2.90;;;;;;;;;;10378508;28;20053;-83
2023/10/05 09:27:09;;;;;;;5.68;2.90;;;;;;;;;;10374709;28;20512;-82
2023/10/05 09:32:36;;;;;;;5.65;2.72;;;;;;;;;;10377839;28;20093;-83
2023/10/05 09:37:40;;;;;;;7.28;3.15;;;;;;;;;;10377082;28;20037;-83
2023/10/05 09:42:42;;;;;;;6.78;2.88;;;;;;;;;;10375578;28;20029;-83
2023/10/05 09:47:46;;;;;;;5.75;2.75;;;;;;;;;;10372410;28;20049;-83
2023/10/05 09:52:48;;;;;;;9.13;3.15;;;;;;;;;;10372382;28;20022;-83
2023/10/05 10:03:08;;;;;;;5.82;2.47;;;;;;;;;;10390897;28;20109;-82
2023/10/05 10:08:12;;;;;;;7.20;2.65;;;;;;;;;;10394085;28;20026;-84
2023/10/05 10:13:14;;;;;;;8.57;2.63;;;;;;;;;;10389602;28;20041;-85
2023/10/05 10:18:15;;;;;;;7.88;3.53;;;;;;;;;;10377598;28;20033;-84
2023/10/05 10:23:22;;;;;;;6.25;2.85;;;;;;;;;;10379919;28;20437;-85
2023/10/05 10:33:35;;;;;;;6.32;3.10;;;;;;;;;;10440755;23;20084;-82
2023/10/05 10:38:39;;;;;;;5.82;3.15;;;;;;;;;;10428829;28;20466;-82
2023/10/05 10:43:40;;;;;;;7.45;3.13;;;;;;;;;;10422761;28;20466;-82
2023/10/05 10:48:57;;;;;;;7.75;2.85;;;;;;;;;;10415627;28;20026;-81
2023/10/05 10:54:02;;;;;;;6.82;2.97;;;;;;;;;;10434673;28;20460;-83
2023/10/05 10:59:10;;;;;;;4.45;2.45;;;;;;;;;;10416919;28;20091;-84
2023/10/05 11:04:25;;;;;;;3.53;2.40;;;;;;;;;;10417522;28;20080;-84
2023/10/05 11:09:35;;;;;;;4.47;2.30;;;;;;;;;;10416491;28;20041;-84
2023/10/05 11:14:37;;;;;;;6.67;3.47;;;;;;;;;;10417021;28;20029;-84
2023/10/05 11:19:49;;;;;;;8.38;2.83;;;;;;;;;;10418318;28;20025;-86
2023/10/05 11:25:14;;;;;;;6.13;2.72;;;;;;;;;;10419271;28;20045;-86
2023/10/05 11:30:18;;;;;;;6.07;3.00;;;;;;;;;;10419882;28;20029;-85
2023/10/05 11:35:42;;;;;;;5.57;2.60;;;;;;;;;;10427255;28;20037;-86
2023/10/05 11:40:49;;;;;;;6.13;2.75;;;;;;;;;;10446698;28;20029;-84
2023/10/05 11:46:17;;;;;;;6.70;2.45;;;;;;;;;;10436823;28;20033;-86
2023/10/05 11:51:59;;;;;;;5.72;2.63;;;;;;;;;;10434076;28;20044;-85
2023/10/05 11:57:10;;;;;;;7.85;2.65;;;;;;;;;;10452929;28;20030;-86
2023/10/05 12:02:12;;;;;;;5.50;2.55;;;;;;;;;;10437809;28;20045;-86
2023/10/05 12:07:48;;;;;;;6.07;2.67;;;;;;;;;;10423182;28;20051;-86
2023/10/05 12:12:50;;;;;;;6.13;2.40;;;;;;;;;;10322431;28;20035;-85
2023/10/05 12:17:53;;;;;;;8.68;2.70;;;;;;;;;;10325934;28;20030;-86
2023/10/05 12:23:22;;;;;;;5.22;2.50;;;;;;;;;;10440374;28;20049;-85
2023/10/05 12:28:54;;;;;;;6.38;2.60;;;;;;;;;;10405559;28;20433;-85
2023/10/05 12:34:35;;;;;;;5.70;2.28;;;;;;;;;;10419737;28;20559;-83
2023/10/05 12:39:36;;;;;;;6.20;2.63;;;;;;;;;;10417194;28;20044;-86
2023/10/05 12:45:11;;;;;;;5.40;2.65;;;;;;;;;;10457554;28;20076;-85
2023/10/05 12:50:20;;;;;;;5.57;2.38;;;;;;;;;;10381375;28;20030;-86
2023/10/05 12:55:26;;;;;;;7.03;2.30;;;;;;;;;;10410944;28;20508;-85
2023/10/05 13:00:39;;;;;;;5.35;2.20;;;;;;;;;;10409839;28;20028;-85
2023/10/05 13:05:51;;;;;;;4.55;2.38;;;;;;;;;;10408623;28;20077;-85
2023/10/05 13:11:14;;;;;;;5.82;2.40;;;;;;;;;;10380520;28;20342;-86
2023/10/05 13:16:21;;;;;;;5.53;2.33;;;;;;;;;;10413626;28;20033;-85
2023/10/05 13:21:49;;;;;;;5.03;2.50;;;;;;;;;;10416672;28;20032;-87
2023/10/05 13:27:09;;;;;;;4.75;2.15;;;;;;;;;;10437308;28;20414;-88
2023/10/05 13:32:14;;;;;;;;;;;;;;;;;;10425494;28;20047;-85
2023/10/05 13:37:19;;;;;;;6.95;2.38;;;;;;;;;;10423326;28;20396;-87
2023/10/05 13:42:52;;;;;;;7.30;2.70;;;;;;;;;;10422672;28;20091;-89
2023/10/05 13:48:29;;;;;;;8.80;2.72;;;;;;;;;;10401448;28;20104;-88
2023/10/05 13:53:56;;;;;;;4.97;2.10;;;;;;;;;;10408352;28;20037;-89
2023/10/05 14:04:44;;;;;;;5.20;2.58;;;;;;;;;;10423804;28;20041;-87
2023/10/05 14:10:11;;;;;;;6.30;2.70;;;;;;;;;;10414366;28;20036;-87
2023/10/05 14:15:19;;;;;;;5.95;2.67;;;;;;;;;;10373153;28;20065;-87
2023/10/05 14:20:26;;;;;;;5.70;3.25;;;;;;;;;;10398405;28;20032;-87
2023/10/05 14:25:28;;;;;;;6.32;3.15;;;;;;;;;;10413991;28;20215;-87
2023/10/05 14:30:32;;;;;;;9.63;4.25;;;;;;;;;;10416266;28;20053;-86
2023/10/05 14:35:56;;;;;;;5.60;3.10;;;;;;;;;;10430838;28;20417;-87
2023/10/05 14:41:28;;;;;;;8.75;3.83;;;;;;;;;;10417376;28;20037;-88
2023/10/05 14:46:37;;;;;;;6.00;3.13;;;;;;;;;;10415817;28;20053;-87
2023/10/05 14:52:19;;;;;;;6.47;3.30;;;;;;;;;;10432732;28;20053;-87
2023/10/05 15:03:03;;;;;;;6.72;2.92;;;;;;;;;;10444504;28;20021;-87
2023/10/05 15:08:08;;;;;;;6.75;2.67;;;;;;;;;;10443713;28;20022;-86
2023/10/05 15:19:05;;;;;;;6.10;3.00;;;;;;;;;;10426217;28;20029;-87
2023/10/05 15:24:10;;;;;;;7.38;3.05;;;;;;;;;;10416639;28;20025;-87
2023/10/05 15:29:13;;;;;;;6.10;2.80;;;;;;;;;;10415480;28;20029;-86
2023/10/05 15:34:14;;;;;;;4.85;3.20;;;;;;;;;;10416851;28;20025;-87
2023/10/05 15:39:15;;;;;;;6.50;3.20;;;;;;;;;;10417302;28;20437;-86
2023/10/05 15:44:16;;;;;;;5.68;3.00;;;;;;;;;;10434936;28;20037;-87
2023/10/05 15:49:18;;;;;;;7.18;3.33;;;;;;;;;;10421567;28;20511;-87
2023/10/05 15:54:20;;;;;;;4.50;2.42;;;;;;;;;;10433941;28;20040;-87
2023/10/05 15:59:22;;;;;;;6.45;2.60;;;;;;;;;;10408958;28;20136;-86
2023/10/05 16:04:23;;;;;;;5.53;2.53;;;;;;;;;;10412784;28;20036;-86
2023/10/05 16:09:26;;;;;;;4.93;2.30;;;;;;;;;;10428398;28;20108;-86
2023/10/05 16:14:28;;;;;;;5.13;2.70;;;;;;;;;;10426720;28;20037;-86
2023/10/05 16:19:29;;;;;;;6.72;2.35;;;;;;;;;;10409970;28;20030;-83
2023/10/05 16:24:32;;;;;;;7.25;2.80;;;;;;;;;;10406222;28;20087;-86
2023/10/05 16:29:33;;;;;;;5.70;2.47;;;;;;;;;;10409242;28;20443;-87
2023/10/05 16:34:38;;;;;;;9.43;2.33;;;;;;;;;;10409205;28;20124;-86
2023/10/05 16:39:39;;;;;;;4.07;2.30;;;;;;;;;;10409768;28;20544;-87
2023/10/05 16:44:41;;;;;;;5.20;2.60;;;;;;;;;;10411902;28;20036;-86
2023/10/05 16:49:43;;;;;;;4.03;2.05;;;;;;;;;;10413023;28;20043;-86
2023/10/05 16:54:44;;;;;;;5.13;2.38;;;;;;;;;;10409011;28;20120;-86
2023/10/05 16:59:45;;;;;;;7.47;2.83;;;;;;;;;;10408163;28;20034;-87
2023/10/05 17:04:46;;;;;;;5.38;2.25;;;;;;;;;;10417156;28;20066;-87
2023/10/05 17:09:47;;;;;;;3.63;2.15;;;;;;;;;;10434704;28;20029;-86
2023/10/05 17:14:49;;;;;;;6.05;2.30;;;;;;;;;;10415422;28;20405;-87
2023/10/05 17:19:50;;;;;;;7.05;2.65;;;;;;;;;;10415004;28;20029;-87
2023/10/05 17:24:58;;;;;;;4.22;2.30;;;;;;;;;;10417318;28;20099;-87
2023/10/05 17:29:59;;;;;;;3.80;2.20;;;;;;;;;;10416131;28;20052;-87
2023/10/05 17:35:00;;;;;;;4.57;2.00;;;;;;;;;;10415447;28;20029;-87
2023/10/05 17:40:04;;;;;;;6.95;3.78;;;;;;;;;;10413808;28;20030;-87
2023/10/05 17:45:06;;;;;;;5.18;2.95;;;;;;;;;;10414543;28;20105;-88
2023/10/05 17:50:08;;;;;;;5.07;2.65;;;;;;;;;;10433302;28;20029;-87
2023/10/05 17:55:09;;;;;;;2.80;2.00;;;;;;;;;;10417079;28;20033;-88
2023/10/05 18:00:14;;;;;;;3.97;1.95;;;;;;;;;;10429560;28;20041;-86
2023/10/05 18:05:16;;;;;;;4.47;2.22;;;;;;;;;;10429362;28;20037;-86
2023/10/05 18:10:17;;;;;;;6.05;3.00;;;;;;;;;;10406296;28;20018;-87
2023/10/05 18:15:21;;;;;;;4.70;2.25;;;;;;;;;;10414002;28;20125;-87
2023/10/05 18:20:22;;;;;;;2.50;1.75;;;;;;;;;;10445626;28;20018;-87
2023/10/05 18:25:24;;;;;;;3.47;2.40;;;;;;;;;;10426212;28;20080;-87
2023/10/05 18:30:25;;;;;;;3.50;2.05;;;;;;;;;;10419818;28;20025;-87
2023/10/05 18:35:26;;;;;;;4.22;2.42;;;;;;;;;;10416705;28;20026;-88
2023/10/05 18:40:30;;;;;;;4.07;1.98;;;;;;;;;;10418618;28;20414;-87
2023/10/05 18:45:31;;;;;;;4.15;2.10;;;;;;;;;;10417361;28;20029;-86
2023/10/05 18:50:32;;;;;;;6.10;2.50;;;;;;;;;;10421457;28;20033;-86
2023/10/05 18:55:34;;;;;;;3.85;2.05;;;;;;;;;;10420688;28;20096;-87
2023/10/05 19:00:35;;;;;;;4.35;2.30;;;;;;;;;;10418186;28;20029;-87
2023/10/05 19:05:36;;;;;;;4.30;2.40;;;;;;;;;;10418262;28;20060;-86
2023/10/05 19:10:38;;;;;;;5.32;2.80;;;;;;;;;;10436998;28;20025;-87
